Time;durP1;ratioP1;P1;durP2;ratioP2;P2;SDS_P1;SDS_P2;PMS_P1;PMS_P2;Temp;Humidity;BMP_temperature;BMP_pressure;BME280_temperature;BME280_humidity;BME280_pressure;Samples;Min_cycle;Max_cycle;Signal;HPM_P1;HPM_P2
2021/12/14 00:01:20;;;;;;;23.97;11.97;;;8.10;99.90;;;;;;5109460;28;20405;-53
2021/12/14 00:03:50;;;;;;;25.27;10.83;;;8.00;99.90;;;;;;5108387;28;20461;-53
2021/12/14 00:06:18;;;;;;;23.00;10.23;;;7.90;99.90;;;;;;5108951;28;20385;-54
2021/12/14 00:08:53;;;;;;;20.30;10.23;;;8.00;99.90;;;;;;5108592;28;20376;-53
2021/12/14 00:17:00;;;;;;;37.00;18.02;;;8.00;99.90;;;;;;5037286;28;20383;-53
2021/12/14 00:19:28;;;;;;;34.30;16.03;;;8.10;99.90;;;;;;5085862;28;20445;-53
2021/12/14 00:22:03;;;;;;;36.10;19.08;;;8.10;99.90;;;;;;5105362;28;20490;-53
2021/12/14 00:24:29;;;;;;;35.43;19.27;;;8.00;99.90;;;;;;5109031;28;20415;-53
2021/12/14 00:27:00;;;;;;;25.55;11.98;;;8.20;99.90;;;;;;5108184;28;20500;-53
2021/12/14 00:29:32;;;;;;;24.27;10.60;;;8.20;99.90;;;;;;5108881;28;20384;-52
2021/12/14 00:32:01;;;;;;;24.80;11.33;;;8.10;99.90;;;;;;5106296;28;20396;-54
2021/12/14 00:34:43;;;;;;;23.70;11.30;;;8.00;99.90;;;;;;5108676;28;20380;-53
2021/12/14 00:37:15;;;;;;;20.77;10.30;;;8.10;99.90;;;;;;5108349;28;20500;-53
2021/12/14 00:39:42;;;;;;;25.13;11.53;;;8.10;99.90;;;;;;5107915;28;20865;-53
2021/12/14 00:42:08;;;;;;;24.70;11.67;;;8.00;99.90;;;;;;5108921;28;20406;-53
2021/12/14 00:44:34;;;;;;;22.95;10.80;;;8.10;99.90;;;;;;5108767;28;20507;-57
2021/12/14 00:47:00;;;;;;;23.27;10.00;;;7.90;99.90;;;;;;5108459;28;20386;-53
2021/12/14 00:49:26;;;;;;;24.50;10.57;;;7.90;99.90;;;;;;5108960;28;20480;-53
2021/12/14 00:51:54;;;;;;;23.33;10.55;;;8.00;99.90;;;;;;5108006;28;20917;-53
2021/12/14 00:54:21;;;;;;;22.10;10.85;;;7.90;99.90;;;;;;5110476;28;20376;-53
2021/12/14 00:56:49;;;;;;;24.27;11.05;;;7.90;99.90;;;;;;5111556;28;20425;-53
2021/12/14 00:59:15;;;;;;;23.90;10.32;;;7.90;99.90;;;;;;5112424;28;20405;-53
2021/12/14 01:01:51;;;;;;;24.40;10.68;;;8.00;99.90;;;;;;5111971;28;20463;-53
2021/12/14 01:04:22;;;;;;;23.48;10.50;;;8.00;99.90;;;;;;5113037;28;20416;-54
2021/12/14 01:06:48;;;;;;;24.08;11.35;;;8.00;99.90;;;;;;5112129;28;20372;-53
2021/12/14 01:09:27;;;;;;;21.45;10.68;;;8.10;99.90;;;;;;5112632;28;20368;-53
2021/12/14 01:11:56;;;;;;;23.35;11.00;;;8.10;99.90;;;;;;5111712;28;20384;-53
2021/12/14 01:17:53;;;;;;;21.63;10.32;;;8.00;99.90;;;;;;5111462;28;20375;-53
2021/12/14 01:20:21;;;;;;;22.42;10.10;;;8.10;99.90;;;;;;5112391;28;20380;-54
2021/12/14 01:22:58;;;;;;;24.70;10.40;;;8.20;99.90;;;;;;5110219;28;20446;-53
2021/12/14 01:25:32;;;;;;;22.65;10.70;;;8.30;99.90;;;;;;5112513;28;20400;-54
2021/12/14 01:28:09;;;;;;;22.98;10.48;;;8.30;99.90;;;;;;5111715;28;20415;-53
2021/12/14 01:30:47;;;;;;;25.90;11.57;;;8.30;99.90;;;;;;5111883;28;20392;-57
2021/12/14 01:33:15;;;;;;;26.08;11.93;;;8.10;99.90;;;;;;5112203;28;20380;-52
2021/12/14 01:35:45;;;;;;;28.17;11.63;;;8.10;99.90;;;;;;5110018;28;20764;-52
2021/12/14 01:40:58;;;;;;;22.20;10.75;;;8.10;99.90;;;;;;5111459;28;20376;-53
2021/12/14 01:43:32;;;;;;;20.02;8.93;;;8.20;99.90;;;;;;5111929;28;20545;-54
2021/12/14 01:46:02;;;;;;;16.98;8.50;;;8.10;99.90;;;;;;5111344;28;20407;-52
2021/12/14 01:48:28;;;;;;;19.98;9.40;;;8.10;99.90;;;;;;5112039;28;20404;-52
2021/12/14 01:50:58;;;;;;;18.13;8.40;;;7.90;99.90;;;;;;5111149;28;20376;-52
2021/12/14 01:53:25;;;;;;;17.90;8.97;;;7.80;99.90;;;;;;5111634;28;20686;-52
2021/12/14 01:55:55;;;;;;;16.92;9.13;;;7.80;99.90;;;;;;5110498;28;20779;-52
2021/12/14 01:58:38;;;;;;;16.70;8.20;;;7.80;99.90;;;;;;5111221;28;20423;-53
2021/12/14 02:01:14;;;;;;;18.88;8.90;;;7.80;99.90;;;;;;5111325;28;20430;-52
2021/12/14 02:04:05;;;;;;;16.90;8.43;;;7.80;99.90;;;;;;5110338;28;20481;-52
2021/12/14 02:06:33;;;;;;;17.23;8.60;;;7.70;99.90;;;;;;5109606;28;20404;-52
2021/12/14 02:09:09;;;;;;;16.33;8.00;;;7.60;99.90;;;;;;5110477;27;21016;-52
2021/12/14 02:11:39;;;;;;;18.95;8.63;;;7.60;99.90;;;;;;5111104;28;20380;-52
2021/12/14 02:14:06;;;;;;;19.00;8.90;;;7.50;99.90;;;;;;5110357;28;20408;-52
2021/12/14 02:16:33;;;;;;;17.47;8.17;;;7.50;99.90;;;;;;5110288;28;20457;-53
2021/12/14 02:19:06;;;;;;;19.48;9.05;;;7.40;99.90;;;;;;5090244;28;20405;-52
2021/12/14 02:21:32;;;;;;;22.58;9.93;;;7.40;99.90;;;;;;5090850;28;20461;-52
2021/12/14 02:24:01;;;;;;;19.00;9.15;;;7.40;99.90;;;;;;5107878;28;20383;-52
2021/12/14 02:26:31;;;;;;;20.70;9.38;;;7.30;99.90;;;;;;5111133;28;20407;-52
2021/12/14 02:29:00;;;;;;;19.13;9.88;;;7.30;99.90;;;;;;5110285;28;20425;-52
2021/12/14 02:31:26;;;;;;;18.17;9.07;;;7.20;99.90;;;;;;5110957;28;20437;-52
2021/12/14 02:33:56;;;;;;;21.13;10.00;;;7.20;99.90;;;;;;5110464;28;20419;-52
2021/12/14 02:36:28;;;;;;;19.85;8.50;;;7.20;99.90;;;;;;5111171;28;20459;-52
2021/12/14 02:39:07;;;;;;;20.27;9.05;;;7.20;99.90;;;;;;5106610;28;20385;-53
2021/12/14 02:41:42;;;;;;;21.98;8.82;;;7.20;99.90;;;;;;5090422;28;20444;-52
2021/12/14 02:44:08;;;;;;;20.73;9.23;;;7.10;99.90;;;;;;5090076;28;20466;-53
2021/12/14 02:46:38;;;;;;;20.88;9.18;;;7.20;99.90;;;;;;5090802;28;20499;-52
2021/12/14 02:49:08;;;;;;;23.50;9.48;;;6.60;99.90;;;;;;5088390;28;20756;-52
2021/12/14 02:51:43;;;;;;;19.15;8.88;;;6.90;99.90;;;;;;5090389;28;20401;-52
2021/12/14 02:54:19;;;;;;;19.73;9.10;;;6.90;99.90;;;;;;5090305;28;20389;-53
2021/12/14 02:56:48;;;;;;;20.00;8.98;;;7.00;99.90;;;;;;5089235;28;20784;-54
2021/12/14 02:59:18;;;;;;;19.10;8.98;;;6.90;99.90;;;;;;5090349;28;20382;-52
2021/12/14 03:01:46;;;;;;;20.40;9.20;;;6.70;99.90;;;;;;5089644;28;20555;-52
2021/12/14 03:04:12;;;;;;;21.83;9.73;;;6.50;99.90;;;;;;5090173;28;20465;-52
2021/12/14 03:06:48;;;;;;;19.65;9.35;;;6.40;99.90;;;;;;5090058;28;20943;-56
2021/12/14 03:10:34;;;;;;;18.00;9.57;;;6.40;99.90;;;;;;5090259;28;20363;-52
2021/12/14 03:12:19;;;;;;;23.85;9.40;;;6.40;99.90;;;;;;5084921;28;20394;-52
2021/12/14 03:15:14;;;;;;;25.98;10.27;;;6.50;99.90;;;;;;5089215;28;20413;-52
2021/12/14 03:17:43;;;;;;;21.52;9.18;;;6.50;99.90;;;;;;5087288;28;20808;-56
2021/12/14 03:20:39;;;;;;;20.27;9.10;;;6.60;99.90;;;;;;5089562;28;20424;-52
2021/12/14 03:23:37;;;;;;;21.92;9.07;;;6.60;99.90;;;;;;5088553;28;20410;-52
2021/12/14 03:26:06;;;;;;;24.50;10.07;;;6.60;99.90;;;;;;5088768;28;20409;-52
2021/12/14 03:28:32;;;;;;;22.10;10.37;;;6.60;99.90;;;;;;5089897;28;20878;-52
2021/12/14 03:31:10;;;;;;;26.35;10.30;;;6.50;99.90;;;;;;5088723;28;20469;-52
2021/12/14 03:33:42;;;;;;;27.25;10.18;;;6.50;99.90;;;;;;5089814;28;20466;-53
2021/12/14 03:36:17;;;;;;;26.80;10.40;;;6.50;99.90;;;;;;5089853;28;20381;-53
2021/12/14 03:38:50;;;;;;;22.70;9.50;;;6.50;99.90;;;;;;5089100;28;20857;-52
2021/12/14 03:41:20;;;;;;;29.85;10.25;;;6.50;99.90;;;;;;5089624;28;20417;-52
2021/12/14 03:44:00;;;;;;;24.42;9.77;;;6.60;99.90;;;;;;5088602;28;20841;-52
2021/12/14 03:46:32;;;;;;;25.20;9.88;;;6.50;99.90;;;;;;5089249;28;20382;-52
2021/12/14 03:48:59;;;;;;;27.57;9.50;;;6.50;99.90;;;;;;5088452;28;20570;-52
2021/12/14 03:51:25;;;;;;;30.47;9.70;;;6.60;99.90;;;;;;5089605;28;20996;-53
2021/12/14 03:53:55;;;;;;;24.20;9.47;;;6.70;99.90;;;;;;5087142;28;20385;-52
2021/12/14 03:56:21;;;;;;;27.58;10.15;;;6.70;99.90;;;;;;5089369;28;20378;-52
2021/12/14 03:58:48;;;;;;;25.95;10.00;;;6.60;99.90;;;;;;5088331;28;21231;-52
2021/12/14 04:01:18;;;;;;;30.70;9.57;;;7.90;99.90;;;;;;5089156;28;20375;-52
2021/12/14 04:03:48;;;;;;;26.45;10.00;;;6.60;99.90;;;;;;5088280;28;20409;-53
2021/12/14 04:06:16;;;;;;;24.60;8.15;;;6.50;99.90;;;;;;5089441;28;20378;-52
2021/12/14 04:08:42;;;;;;;21.83;8.40;;;6.40;99.90;;;;;;5088581;28;20724;-57
2021/12/14 04:11:09;;;;;;;20.45;7.22;;;6.30;99.90;;;;;;5088702;28;20382;-52
2021/12/14 04:13:39;;;;;;;23.83;8.50;;;6.20;99.90;;;;;;5089354;28;20401;-53
2021/12/14 04:16:08;;;;;;;24.05;7.70;;;6.20;99.90;;;;;;5088722;28;20735;-53
2021/12/14 04:18:34;;;;;;;21.77;7.60;;;6.10;99.90;;;;;;5088810;28;20743;-53
2021/12/14 04:21:00;;;;;;;17.98;7.28;;;6.00;99.90;;;;;;5088359;28;20366;-53
2021/12/14 04:23:30;;;;;;;22.20;7.32;;;6.00;99.90;;;;;;5089224;28;20409;-58
2021/12/14 04:25:59;;;;;;;19.55;7.50;;;6.10;99.90;;;;;;5088124;28;20436;-53
2021/12/14 04:28:32;;;;;;;20.38;7.32;;;6.00;99.90;;;;;;5089519;28;20401;-54
2021/12/14 04:30:58;;;;;;;21.73;6.88;;;6.00;99.90;;;;;;5108183;28;20387;-54
2021/12/14 04:33:31;;;;;;;23.70;8.20;;;5.90;99.90;;;;;;5112966;28;20379;-53
2021/12/14 04:35:57;;;;;;;23.85;7.78;;;5.80;99.90;;;;;;5110435;28;20381;-53
2021/12/14 04:38:32;;;;;;;26.05;8.10;;;5.90;99.90;;;;;;5113203;28;20377;-54
2021/12/14 04:52:04;;;;;;;24.25;8.07;;;5.70;99.90;;;;;;5112117;28;20513;-54
2021/12/14 04:54:49;;;;;;;24.73;8.13;;;5.70;99.90;;;;;;5113064;28;20388;-53
2021/12/14 04:57:28;;;;;;;21.15;7.72;;;5.80;99.90;;;;;;5112986;28;20456;-53
2021/12/14 04:59:57;;;;;;;22.65;7.70;;;5.90;99.90;;;;;;5112186;28;20380;-54
2021/12/14 05:02:28;;;;;;;19.35;7.32;;;6.10;99.90;;;;;;5112029;28;20412;-54
2021/12/14 05:04:56;;;;;;;20.07;7.77;;;6.10;99.90;;;;;;5112057;28;20372;-54
2021/12/14 05:09:58;;;;;;;24.05;8.20;;;6.10;99.90;;;;;;5112019;28;20467;-54
2021/12/14 05:12:28;;;;;;;22.60;8.10;;;6.00;99.90;;;;;;5111841;28;20463;-54
2021/12/14 05:14:54;;;;;;;23.33;8.23;;;6.10;99.90;;;;;;5111787;28;20547;-54
2021/12/14 05:17:23;;;;;;;23.87;9.20;;;6.00;99.90;;;;;;5111464;28;20848;-54
2021/12/14 05:19:51;;;;;;;21.85;8.30;;;6.00;99.90;;;;;;5111461;28;20872;-53
2021/12/14 05:22:23;;;;;;;21.92;8.15;;;5.90;99.90;;;;;;5111308;28;20400;-53
2021/12/14 05:24:56;;;;;;;24.27;8.55;;;6.00;99.90;;;;;;5111992;28;20392;-53
2021/12/14 05:27:27;;;;;;;25.17;8.75;;;5.90;99.90;;;;;;5112131;28;20440;-53
2021/12/14 05:29:54;;;;;;;25.00;8.73;;;5.90;99.90;;;;;;5111536;28;20456;-55
2021/12/14 05:32:20;;;;;;;24.17;8.73;;;5.90;99.90;;;;;;5112281;28;20460;-53
2021/12/14 05:34:49;;;;;;;22.38;8.80;;;5.90;99.90;;;;;;5111697;28;20384;-53
2021/12/14 05:37:24;;;;;;;21.67;8.25;;;5.90;99.90;;;;;;5112579;28;20373;-53
2021/12/14 05:39:56;;;;;;;25.58;8.35;;;5.80;99.90;;;;;;5108958;28;20373;-54
2021/12/14 05:45:12;;;;;;;27.90;9.43;;;6.70;99.90;;;;;;5111009;28;20472;-55
2021/12/14 05:47:48;;;;;;;24.13;8.60;;;5.70;99.90;;;;;;5112339;28;20477;-53
2021/12/14 05:50:21;;;;;;;23.15;9.02;;;5.80;99.90;;;;;;5111869;28;20421;-54
2021/12/14 05:52:47;;;;;;;24.63;8.80;;;5.90;99.90;;;;;;5111014;28;20380;-54
2021/12/14 05:55:15;;;;;;;24.23;8.80;;;5.90;99.90;;;;;;5111782;28;20420;-53
2021/12/14 05:57:40;;;;;;;22.85;8.40;;;5.90;99.90;;;;;;5110756;28;20396;-59
2021/12/14 06:00:10;;;;;;;23.05;8.27;;;5.80;99.90;;;;;;5105236;28;21217;-53
2021/12/14 06:02:38;;;;;;;20.38;7.57;;;5.70;99.90;;;;;;5100595;28;20402;-53
2021/12/14 06:05:05;;;;;;;15.40;7.00;;;5.70;99.90;;;;;;5092410;28;20376;-53
2021/12/14 06:07:31;;;;;;;16.17;6.90;;;5.60;99.90;;;;;;5111169;28;20395;-53
2021/12/14 06:09:57;;;;;;;18.30;6.70;;;5.50;99.90;;;;;;5101177;28;20469;-55
2021/12/14 06:12:28;;;;;;;14.50;6.07;;;5.60;99.90;;;;;;5091022;28;20457;-53
2021/12/14 06:14:58;;;;;;;13.07;5.80;;;5.70;99.90;;;;;;5090443;28;20414;-53
2021/12/14 06:17:36;;;;;;;17.17;7.25;;;5.60;99.90;;;;;;5090969;28;20406;-53
2021/12/14 06:20:18;;;;;;;14.90;5.90;;;5.60;99.90;;;;;;5109084;28;20372;-53
2021/12/14 06:22:44;;;;;;;16.98;6.18;;;5.50;99.90;;;;;;5110826;28;20400;-57
2021/12/14 06:25:14;;;;;;;12.38;5.70;;;5.60;99.90;;;;;;5111121;28;20479;-53
2021/12/14 06:27:40;;;;;;;13.77;5.80;;;5.50;99.90;;;;;;5111586;28;20419;-53
2021/12/14 06:30:13;;;;;;;16.25;7.43;;;5.50;99.90;;;;;;5108946;28;20438;-53
2021/12/14 06:32:44;;;;;;;16.70;6.43;;;5.50;99.90;;;;;;5105930;28;20449;-53
2021/12/14 06:35:22;;;;;;;16.50;6.80;;;5.60;99.90;;;;;;5110910;28;20380;-54
2021/12/14 06:40:53;;;;;;;13.82;6.20;;;5.60;99.90;;;;;;5090938;28;20382;-53
2021/12/14 06:43:22;;;;;;;15.73;6.20;;;5.70;99.90;;;;;;5089222;28;20430;-53
2021/12/14 06:45:55;;;;;;;12.80;6.00;;;5.70;99.90;;;;;;5089690;28;20386;-53
2021/12/14 06:48:27;;;;;;;15.10;6.70;;;5.60;99.90;;;;;;5090391;28;20377;-53
2021/12/14 06:50:54;;;;;;;16.73;7.53;;;5.60;99.90;;;;;;5089703;28;20386;-53
2021/12/14 06:53:21;;;;;;;15.13;6.20;;;5.70;99.90;;;;;;5090422;28;20385;-53
2021/12/14 06:55:51;;;;;;;16.00;7.20;;;7.00;99.90;;;;;;5093267;28;20388;-54
2021/12/14 06:58:27;;;;;;;18.40;7.97;;;6.20;99.90;;;;;;5106595;28;20901;-53
2021/12/14 07:01:16;;;;;;;18.00;7.68;;;5.60;99.90;;;;;;5089689;28;20374;-53
2021/12/14 07:03:51;;;;;;;18.02;7.95;;;5.70;99.90;;;;;;5093580;28;20404;-57
2021/12/14 07:06:28;;;;;;;20.70;8.83;;;5.80;99.90;;;;;;5107399;28;20508;-53
2021/12/14 07:09:03;;;;;;;17.95;8.18;;;5.90;99.90;;;;;;5108764;28;20711;-53
2021/12/14 07:11:29;;;;;;;19.95;8.30;;;5.90;99.90;;;;;;5109229;28;20364;-53
2021/12/14 07:13:57;;;;;;;18.50;8.32;;;6.20;99.90;;;;;;5108691;28;20495;-54
2021/12/14 07:16:33;;;;;;;15.55;7.50;;;6.00;99.90;;;;;;5110392;28;20405;-53
2021/12/14 07:19:02;;;;;;;15.27;7.55;;;6.00;99.90;;;;;;5109197;28;20459;-55
2021/12/14 07:21:37;;;;;;;16.33;6.30;;;5.90;99.90;;;;;;5109793;28;20380;-53
2021/12/14 07:24:29;;;;;;;17.65;7.47;;;6.00;99.90;;;;;;5109118;28;20990;-53
2021/12/14 07:27:18;;;;;;;20.17;7.30;;;6.10;99.90;;;;;;5107691;28;20399;-54
2021/12/14 07:29:45;;;;;;;15.65;6.53;;;6.10;99.90;;;;;;5109486;28;20373;-57
2021/12/14 07:32:11;;;;;;;17.70;7.70;;;6.20;99.90;;;;;;5103147;28;20847;-53
2021/12/14 07:34:38;;;;;;;18.73;8.35;;;6.20;99.90;;;;;;5089116;28;20374;-54
2021/12/14 07:37:04;;;;;;;19.05;8.65;;;6.20;99.90;;;;;;5088401;28;21012;-53
2021/12/14 07:39:30;;;;;;;21.63;9.03;;;6.20;99.90;;;;;;5100384;28;20913;-53
2021/12/14 07:42:02;;;;;;;24.50;8.93;;;6.30;99.90;;;;;;5108531;28;20426;-53
2021/12/14 07:44:31;;;;;;;26.25;8.50;;;6.30;99.90;;;;;;5109795;28;20399;-53
2021/12/14 07:46:59;;;;;;;22.83;8.90;;;6.40;99.90;;;;;;5108669;28;20424;-53
2021/12/14 07:49:34;;;;;;;24.50;9.20;;;6.50;99.90;;;;;;5109414;28;20385;-54
2021/12/14 07:52:07;;;;;;;20.65;8.80;;;6.50;99.90;;;;;;5108863;28;20500;-53
2021/12/14 07:54:37;;;;;;;22.13;9.30;;;6.50;99.90;;;;;;5108158;28;20396;-53
2021/12/14 07:57:14;;;;;;;18.95;8.40;;;6.30;99.90;;;;;;5095677;28;20661;-54
2021/12/14 07:59:43;;;;;;;24.83;9.43;;;6.20;99.90;;;;;;5089362;28;20723;-53
2021/12/14 08:02:15;;;;;;;21.42;9.88;;;6.20;99.90;;;;;;5088814;28;20866;-54
2021/12/14 08:04:48;;;;;;;20.77;9.90;;;6.80;99.90;;;;;;5097018;28;20438;-53
2021/12/14 08:07:21;;;;;;;21.00;10.70;;;6.40;99.90;;;;;;5110311;28;20769;-53
2021/12/14 08:09:49;;;;;;;21.38;9.60;;;6.30;99.90;;;;;;5112717;28;20396;-57
2021/12/14 08:12:33;;;;;;;23.52;10.90;;;6.40;99.90;;;;;;5113512;28;20448;-53
2021/12/14 08:15:24;;;;;;;24.17;11.43;;;6.50;99.90;;;;;;5092146;28;20398;-55
2021/12/14 08:18:07;;;;;;;23.05;10.00;;;6.50;99.90;;;;;;5103199;28;20392;-54
2021/12/14 08:20:35;;;;;;;21.30;9.70;;;6.60;99.90;;;;;;5111315;27;20594;-54
2021/12/14 08:23:23;;;;;;;19.85;9.32;;;6.70;99.90;;;;;;5102411;28;20405;-53
2021/12/14 08:25:52;;;;;;;21.67;9.55;;;6.80;99.90;;;;;;5102796;28;20492;-54
2021/12/14 08:28:21;;;;;;;18.50;9.02;;;6.80;99.90;;;;;;5100722;28;20428;-54
2021/12/14 08:30:58;;;;;;;19.42;8.57;;;6.70;99.90;;;;;;5092297;28;20374;-58
2021/12/14 08:33:26;;;;;;;19.97;9.60;;;6.70;99.90;;;;;;5097840;28;20404;-53
2021/12/14 08:35:55;;;;;;;20.37;9.10;;;6.90;99.90;;;;;;5112333;28;20412;-53
2021/12/14 08:38:21;;;;;;;18.60;8.23;;;6.80;99.90;;;;;;5112948;28;20699;-53
2021/12/14 08:40:53;;;;;;;21.40;9.43;;;6.70;99.90;;;;;;5112738;28;20382;-57
2021/12/14 08:43:32;;;;;;;18.17;8.75;;;6.60;99.90;;;;;;5109632;28;20423;-54
2021/12/14 08:46:13;;;;;;;20.27;8.98;;;6.90;99.90;;;;;;5109034;28;20490;-53
2021/12/14 08:48:43;;;;;;;17.15;8.32;;;6.90;99.90;;;;;;5109644;28;20440;-53
2021/12/14 08:51:22;;;;;;;17.55;8.50;;;6.80;99.90;;;;;;5105367;27;20392;-53
2021/12/14 08:53:57;;;;;;;20.85;9.30;;;6.90;99.90;;;;;;5109745;27;20791;-55
2021/12/14 08:56:26;;;;;;;18.67;9.55;;;7.10;99.90;;;;;;5104894;27;20848;-54
2021/12/14 08:58:52;;;;;;;19.83;9.30;;;7.10;99.90;;;;;;5132650;27;20409;-55
2021/12/14 09:01:25;;;;;;;17.98;9.02;;;7.20;99.90;;;;;;5154343;27;20403;-53
2021/12/14 09:03:57;;;;;;;16.60;8.45;;;7.20;99.90;;;;;;5115323;27;20424;-55
2021/12/14 09:06:29;;;;;;;18.13;8.70;;;7.20;99.90;;;;;;5109213;27;20441;-55
2021/12/14 09:08:59;;;;;;;17.00;9.00;;;7.20;99.90;;;;;;5108694;27;20861;-53
2021/12/14 09:11:29;;;;;;;17.20;8.20;;;8.30;99.90;;;;;;5104443;27;20388;-53
2021/12/14 09:13:57;;;;;;;16.30;7.85;;;7.20;99.90;;;;;;5106109;27;20756;-53
2021/12/14 09:16:27;;;;;;;15.38;7.88;;;7.20;99.90;;;;;;5104484;28;20398;-53
2021/12/14 09:18:57;;;;;;;17.40;8.40;;;7.30;99.90;;;;;;5108833;28;20483;-53
2021/12/14 09:21:27;;;;;;;18.80;9.20;;;7.30;99.90;;;;;;5111878;28;20379;-54
2021/12/14 09:23:58;;;;;;;20.52;8.85;;;7.20;99.90;;;;;;5110792;28;20412;-53
2021/12/14 09:26:26;;;;;;;18.48;8.13;;;7.20;99.90;;;;;;5113103;27;20902;-53
2021/12/14 09:28:52;;;;;;;18.73;9.00;;;7.30;99.90;;;;;;5106579;27;20880;-54
2021/12/14 09:31:22;;;;;;;15.97;8.67;;;7.40;99.90;;;;;;5106407;27;20433;-54
2021/12/14 09:33:50;;;;;;;17.48;9.43;;;7.50;99.90;;;;;;5099169;28;20402;-57
2021/12/14 09:36:16;;;;;;;28.25;9.25;;;7.50;99.90;;;;;;5112138;27;20441;-54
2021/12/14 09:38:48;;;;;;;16.10;7.50;;;7.60;99.90;;;;;;5111792;28;20371;-54
2021/12/14 09:41:17;;;;;;;15.02;7.47;;;7.70;99.90;;;;;;5111370;28;20473;-54
2021/12/14 09:43:45;;;;;;;15.80;7.37;;;7.80;99.90;;;;;;5111614;28;20499;-54
2021/12/14 09:46:11;;;;;;;16.60;8.30;;;8.00;99.90;;;;;;5111021;28;20384;-54
2021/12/14 09:48:42;;;;;;;14.52;7.05;;;7.90;99.90;;;;;;5111853;28;20360;-56
2021/12/14 09:51:13;;;;;;;18.75;8.98;;;7.70;99.90;;;;;;5107462;28;20463;-53
2021/12/14 09:53:42;;;;;;;16.83;8.23;;;7.70;99.90;;;;;;5101062;28;20386;-53
2021/12/14 09:56:12;;;;;;;16.20;8.23;;;7.60;99.90;;;;;;5090340;28;20822;-54
2021/12/14 09:58:46;;;;;;;14.52;7.65;;;7.60;99.90;;;;;;5111226;28;20412;-53
2021/12/14 10:01:21;;;;;;;14.73;7.65;;;7.70;99.90;;;;;;5106290;28;20563;-55
2021/12/14 10:03:52;;;;;;;15.95;7.22;;;7.70;99.90;;;;;;5107059;28;20399;-58
2021/12/14 10:06:21;;;;;;;15.55;7.38;;;7.80;99.90;;;;;;5111123;28;20373;-54
2021/12/14 10:08:52;;;;;;;15.60;8.25;;;8.00;99.90;;;;;;5109449;28;20377;-57
2021/12/14 10:14:38;;;;;;;15.90;8.13;;;8.20;99.90;;;;;;5089004;28;20445;-53
2021/12/14 10:17:10;;;;;;;15.07;8.05;;;8.10;99.90;;;;;;5073578;28;20411;-54
2021/12/14 10:19:37;;;;;;;14.55;7.90;;;7.90;99.90;;;;;;5080802;28;20538;-53
2021/12/14 10:22:24;;;;;;;16.50;7.90;;;7.80;99.90;;;;;;5099533;28;20865;-51
2021/12/14 10:24:53;;;;;;;16.08;9.40;;;7.60;99.90;;;;;;5101703;28;20495;-55
2021/12/14 10:27:21;;;;;;;17.58;9.13;;;7.60;99.90;;;;;;5105024;28;20399;-53
2021/12/14 10:29:47;;;;;;;15.77;8.40;;;7.70;99.90;;;;;;5110358;28;20526;-57
2021/12/14 10:32:20;;;;;;;15.50;8.02;;;7.90;99.90;;;;;;5108914;27;20594;-55
2021/12/14 10:34:52;;;;;;;15.93;8.60;;;7.90;99.90;;;;;;5110784;28;20396;-56
2021/12/14 10:37:24;;;;;;;17.00;8.32;;;7.90;99.90;;;;;;5110744;28;20377;-54
2021/12/14 10:43:04;;;;;;;16.65;8.60;;;8.10;99.90;;;;;;5110208;28;20477;-54
2021/12/14 10:45:28;;;;;;;14.30;8.00;;;8.10;99.90;;;;;;5110142;28;20388;-53
2021/12/14 10:47:56;;;;;;;17.52;9.27;;;7.90;99.90;;;;;;5109793;28;20380;-54
2021/12/14 10:50:26;;;;;;;18.38;10.20;;;7.90;99.90;;;;;;5110635;28;20372;-54
2021/12/14 10:52:52;;;;;;;17.02;9.10;;;7.90;99.90;;;;;;5109666;28;20380;-53
2021/12/14 10:55:25;;;;;;;18.05;9.60;;;8.00;99.90;;;;;;5110169;28;20404;-54
2021/12/14 10:57:53;;;;;;;13.43;6.85;;;8.20;99.90;;;;;;5109457;28;20456;-57
2021/12/14 11:00:29;;;;;;;14.13;5.80;;;8.30;99.90;;;;;;5110627;28;20434;-53
2021/12/14 11:03:01;;;;;;;11.80;6.28;;;8.20;99.90;;;;;;5108740;28;20858;-54
2021/12/14 11:05:29;;;;;;;11.07;6.20;;;8.10;99.90;;;;;;5110184;28;20884;-53
2021/12/14 11:07:55;;;;;;;10.27;5.93;;;8.20;99.90;;;;;;5109165;28;20384;-53
2021/12/14 11:10:35;;;;;;;13.32;6.38;;;8.20;99.90;;;;;;5110068;28;20377;-53
2021/12/14 11:13:06;;;;;;;12.85;7.10;;;8.40;99.90;;;;;;5109528;28;20872;-54
2021/12/14 11:15:36;;;;;;;13.30;7.83;;;8.30;99.90;;;;;;5110370;28;20439;-54
2021/12/14 11:18:13;;;;;;;14.05;7.70;;;8.30;99.90;;;;;;5108045;28;20375;-53
2021/12/14 11:20:53;;;;;;;15.10;8.52;;;8.30;99.90;;;;;;5109757;28;20384;-55
2021/12/14 11:23:26;;;;;;;14.90;8.13;;;8.20;99.90;;;;;;5109844;28;20400;-53
2021/12/14 11:26:07;;;;;;;16.17;8.98;;;8.20;99.90;;;;;;5108783;28;20751;-55
2021/12/14 11:28:48;;;;;;;13.38;7.03;;;8.30;99.90;;;;;;5109918;28;20396;-54
2021/12/14 11:31:33;;;;;;;17.05;6.93;;;8.40;99.90;;;;;;5109078;28;20373;-53
2021/12/14 11:34:10;;;;;;;37.67;17.10;;;8.40;99.90;;;;;;5108540;28;20387;-54
2021/12/14 11:37:00;;;;;;;13.70;8.10;;;8.50;99.90;;;;;;5110051;28;20382;-53
2021/12/14 11:39:30;;;;;;;17.02;9.48;;;8.40;99.90;;;;;;5109522;28;20399;-54
2021/12/14 11:42:03;;;;;;;16.75;9.38;;;8.50;99.90;;;;;;5108405;28;20441;-53
2021/12/14 11:44:38;;;;;;;12.45;7.05;;;8.60;99.90;;;;;;5109295;28;20457;-54
2021/12/14 11:50:06;;;;;;;15.05;7.50;;;8.50;99.90;;;;;;5108956;28;20388;-57
2021/12/14 11:52:35;;;;;;;35.83;16.60;;;8.40;99.90;;;;;;5108081;28;20405;-53
2021/12/14 11:55:17;;;;;;;15.05;7.75;;;8.30;99.90;;;;;;5108248;28;20388;-53
2021/12/14 11:57:44;;;;;;;16.23;8.50;;;8.30;99.90;;;;;;5109210;28;20386;-54
2021/12/14 12:00:15;;;;;;;14.90;8.18;;;8.20;99.90;;;;;;5108477;28;20371;-53
2021/12/14 12:02:41;;;;;;;15.55;8.55;;;8.00;99.90;;;;;;5108977;28;20942;-54
2021/12/14 12:05:18;;;;;;;17.27;8.95;;;8.10;99.90;;;;;;5108231;28;20396;-53
2021/12/14 12:10:45;;;;;;;16.98;8.45;;;8.10;99.90;;;;;;5108935;28;20390;-53
2021/12/14 12:13:11;;;;;;;17.75;8.43;;;8.10;99.90;;;;;;5108231;28;20875;-53
2021/12/14 12:15:40;;;;;;;19.02;8.90;;;8.20;99.90;;;;;;5108694;28;20392;-53
2021/12/14 12:18:05;;;;;;;17.85;9.00;;;8.20;99.90;;;;;;5108312;28;20492;-54
2021/12/14 12:20:49;;;;;;;19.60;9.50;;;8.20;99.90;;;;;;5109017;28;20425;-54
2021/12/14 12:23:18;;;;;;;19.20;9.40;;;8.00;99.90;;;;;;5108875;28;20857;-53
2021/12/14 12:26:01;;;;;;;18.85;9.30;;;7.90;99.90;;;;;;5108050;28;20384;-53
2021/12/14 12:28:32;;;;;;;17.88;8.52;;;7.80;99.90;;;;;;5107567;28;20368;-55
2021/12/14 12:31:06;;;;;;;16.00;8.02;;;7.80;99.90;;;;;;5105773;28;20372;-54
2021/12/14 12:33:32;;;;;;;19.42;8.50;;;7.50;99.90;;;;;;5109030;28;20384;-52
2021/12/14 12:36:16;;;;;;;19.77;9.02;;;7.40;99.90;;;;;;5109843;28;20686;-52
2021/12/14 12:38:41;;;;;;;21.10;9.25;;;7.40;99.90;;;;;;5094882;28;20393;-52
2021/12/14 12:41:27;;;;;;;25.13;10.90;;;6.00;99.90;;;;;;5088065;28;20374;-53
2021/12/14 12:44:04;;;;;;;19.33;9.73;;;7.30;99.90;;;;;;5087560;28;20426;-56
2021/12/14 12:46:59;;;;;;;25.23;12.18;;;7.20;99.90;;;;;;5089104;28;20432;-52
2021/12/14 12:49:39;;;;;;;25.10;9.65;;;7.40;99.90;;;;;;5104273;28;20824;-53
2021/12/14 12:52:05;;;;;;;22.10;10.38;;;7.50;99.90;;;;;;5110949;28;20857;-53
2021/12/14 12:54:43;;;;;;;21.65;9.95;;;7.60;99.90;;;;;;5111968;28;20377;-52
2021/12/14 12:57:15;;;;;;;22.73;10.40;;;7.70;99.90;;;;;;5111196;28;20814;-54
2021/12/14 12:59:51;;;;;;;22.38;10.20;;;7.80;99.90;;;;;;5111424;28;20846;-53
2021/12/14 13:02:35;;;;;;;23.92;11.75;;;7.80;99.90;;;;;;5111318;28;20410;-53
2021/12/14 13:05:15;;;;;;;24.73;11.50;;;7.90;99.90;;;;;;5110741;28;20387;-52
2021/12/14 13:07:43;;;;;;;23.27;12.90;;;7.80;99.90;;;;;;5108220;28;20416;-53
2021/12/14 13:10:12;;;;;;;25.55;12.00;;;7.70;99.90;;;;;;5090713;28;20374;-52
2021/12/14 13:12:53;;;;;;;28.23;12.43;;;7.70;99.90;;;;;;5094587;28;20396;-53
2021/12/14 13:15:31;;;;;;;25.48;12.95;;;7.60;99.90;;;;;;5111790;28;20415;-52
2021/12/14 13:18:16;;;;;;;25.92;12.38;;;7.70;99.90;;;;;;5110618;28;20423;-53
2021/12/14 13:20:44;;;;;;;26.20;12.10;;;7.70;99.90;;;;;;5111434;28;20590;-53
2021/12/14 13:23:10;;;;;;;23.85;11.15;;;7.90;99.90;;;;;;5110912;28;21043;-53
2021/12/14 13:25:38;;;;;;;23.30;10.98;;;7.90;99.90;;;;;;5111752;27;20504;-54
2021/12/14 13:28:04;;;;;;;24.70;11.82;;;7.90;99.90;;;;;;5113456;27;20388;-52
2021/12/14 13:30:30;;;;;;;24.65;11.55;;;8.00;99.90;;;;;;5111211;28;20392;-54
2021/12/14 13:32:57;;;;;;;22.02;11.40;;;8.00;99.90;;;;;;5111316;28;20407;-53
2021/12/14 13:35:31;;;;;;;23.45;12.20;;;8.10;99.90;;;;;;5111804;28;20392;-53
2021/12/14 13:38:06;;;;;;;24.55;11.40;;;8.10;99.90;;;;;;5109695;28;20395;-53
2021/12/14 13:40:39;;;;;;;24.63;11.90;;;8.10;99.90;;;;;;5111586;28;20388;-53
2021/12/14 13:43:11;;;;;;;24.50;12.18;;;8.10;99.90;;;;;;5111075;28;20448;-53
2021/12/14 13:45:59;;;;;;;35.35;15.52;;;8.10;99.90;;;;;;5111856;28;20834;-53
2021/12/14 13:48:32;;;;;;;30.08;15.65;;;8.10;99.90;;;;;;5111859;28;20372;-52
2021/12/14 13:51:14;;;;;;;23.60;11.65;;;8.20;99.90;;;;;;5130275;27;20448;-53